Vallejo, CA

9:34 PM PDT on August 29, 2014 (GMT -0700)
Travis Air Force Base | Change Station
CLOSE
Current Station
Airport
Location: Fairfield,
Elevation: 62 ft
Nearby Weather Stations

Elev 62 ft 38.27 °N, 121.95 °W | Updated 36 minutes ago

Clear
Clear
70 °F
Feels Like 70 °F
N
20
Wind Variable Wind from SW

Today
High -- | Low -- °F
--% Chance of Precip.
Yesterday
High -- | Low -- °F
Precip. -- in
6:36 AM 7:42 PM
Waxing Crescent, 19% visible
Pressure 29.83 in
Visibility 10.0 miles
Clouds Clear
Dew Point 58 °F
Humidity 65%
Rainfall 0.00 in
Snow Depth Not available.
UV 0 out of 12
Pollen 7.40 out of 12
Air Quality Not available.
Flu Activity Not available.
METAR KSUU 300358Z AUTO 22017KT 10SM CLR 21/14 A2981 RMK AO2 SLP101 T02120144 PWINO PNO $

More Conditions Fewer Conditions

Pressure 29.83 in
Visibility 10.0 miles
Clouds Clear
Dew Point 58 °F
Humidity 65%
Rainfall 0.00 in
Snow Depth Not available.
UV 0 out of 12
Pollen 7.40 out of 12
Air Quality Not available.
Flu Activity Not available.
METAR KSUU 300358Z AUTO 22017KT 10SM CLR 21/14 A2981 RMK AO2 SLP101 T02120144 PWINO PNO $

More Conditions Fewer Conditions

10-Day Weather Forecast

Almanac

Astronomy

Aug. 29, 2014 Rise Set
Actual Time 6:36 AM PDT 7:42 PM PDT
Civil Twilight 6:08 AM PDT 8:10 PM PDT
Nautical Twilight 5:36 AM PDT 8:42 PM PDT
Astronomical Twilight 5:02 AM PDT 9:15 PM PDT
Moon 10:26 AM PDT (8/29) 9:48 PM PDT (8/29)
Length of Visible Light 14h 01m
Length of Day
13h 06m
Tomorrow will be 2m 20s shorter.
Waxing Crescent, 19% of the Moon is Illuminated
Aug 30
Waxing Crescent
Sep 2
First Quarter
Sep 8
Full
Sep 15
Last Quarter
Sep 24
New

Today's Extremes

State Highs State Lows

Community

WunderPhotos

Upload Photos

1,748,452 photos uploaded!

Nearby

Air Quality

  Air Quality AQ Index Pollutant
Yesterday Good
OZONE
Friday Good
OZONE
Saturday Good
OZONE
Sunday Good
OZONE
Monday Good
OZONE
Tuesday Good
OZONE
Wednesday Good
OZONE

Snow Depth

Station Depth Elevation
Echo Peak 0 in 7800 ft
CSS Lab 2 in 6900 ft
Blue Lakes 0 in 8000 ft
Hagan's Meadow 0 in 8000 ft
Leavitt Lake 0 in 9400 ft

Earthquake Activity

City Distance Mag. Time & Date
Ridgemark, California 113 miles 3.5 4:32 PM PDT
2014-08-29
The Geysers, California 55 miles 2.7 2:53 PM PDT
2014-08-29
Ridgemark, California 113 miles 3.0 2:44 PM PDT
2014-08-29
Napa, California 7 miles 2.6 11:57 AM PDT
2014-08-27
Minimum magnitude displayed is 2.5.

Coastal Water Temperatures

Place Temperature
San Francisco, CA 64.9 °F
Richmond, CA 66.9 °F
Port Chicago, CA 70.0 °F

Nearby Weather Stations